Historique des mesures à Cassis (13260), France
Quotidien Résumé Janvier 22, 2018 Unités:  Métrique/US    US   Métrique
« Précédent (Jour)
Suivant (Jour) »
Quotidien Hebdomadaire Mensuel Annuel Période au choix
  Maximum: Minimum: Moyenne:
Température: TemperatureC °F /  -17.8 °C 13.6 °F /  -10.2 °C 14.5 °F /  -9.7 °C
Point de rosée: DewpointC °F /  -17.8 °C 6.9 °F /  -13.9 °C 7.5 °F /  -13.6 °C
Humidité: Humidity % 54 % 59 %
Vitesse du vent: WindSpeedKMH mph /  0 km/h - 17.8 mph /  28.6 km/h
Rafales: WindSpeedGustKMH mph /  0 km/h - -
Vent:- - West
Pression: PressurehPa in /  0 hPa 1012.8 in /  34293.4 hPa -
Précipitations: 0.0 in /  0 mm    
Historical Graphs
 
 
Mesures pour : Janvier 22, 2018
Heure Temperature Point de rosée Pression Vent Vitesse du vent Rafales Humidité Pluie (par heure) Conditions
TemperatureC °F /  -17.8 °C DewpointC °F /  -17.8 °C PressurehPa in /  0 hPa Calm     Humidity % HourlyPrecipMM in /  0 mm SoftwareType W/m2
01:12 14.5 °F /  -9.7 °C 7.8 °F /  -13.4 °C 1013.1 in /  34303.6 hPa WNW 29.4 mph /  47.3 km/h 29.4 mph /  47.3 km/h 64 % 0.0 in /  0 mm open2300-1.11 W/m2
02:12 14.1 °F /  -9.9 °C 7.6 °F /  -13.6 °C 1013.1 in /  34303.6 hPa WNW 10.1 mph /  16.3 km/h 10.1 mph /  16.3 km/h 65 % 0.0 in /  0 mm open2300-1.11 W/m2
03:12 13.8 °F /  -10.1 °C 7.5 °F /  -13.6 °C 1013.4 in /  34313.7 hPa NNW 8.2 mph /  13.2 km/h 28.2 mph /  45.4 km/h 66 % 0.0 in /  0 mm open2300-1.11 W/m2
04:12 13.7 °F /  -10.2 °C 7.0 °F /  -13.9 °C 1013.1 in /  34303.6 hPa NNE 9.0 mph /  14.5 km/h 34.1 mph /  54.9 km/h 64 % 0.0 in /  0 mm open2300-1.11 W/m2
05:12 13.6 °F /  -10.2 °C 6.9 °F /  -13.9 °C 1013.1 in /  34303.6 hPa West 9.3 mph /  15 km/h 21.2 mph /  34.1 km/h 64 % 0.0 in /  0 mm open2300-1.11 W/m2
06:12 13.6 °F /  -10.2 °C 6.9 °F /  -13.9 °C 1012.8 in /  34293.4 hPa NW 24.8 mph /  39.9 km/h 24.8 mph /  39.9 km/h 64 % 0.0 in /  0 mm open2300-1.11 W/m2
07:12 13.9 °F /  -10.1 °C 6.9 °F /  -13.9 °C 1012.8 in /  34293.4 hPa WNW 25.3 mph /  40.7 km/h 25.3 mph /  40.7 km/h 63 % 0.0 in /  0 mm open2300-1.11 W/m2
08:12 13.6 °F /  -10.2 °C 7.1 °F /  -13.8 °C 1012.8 in /  34293.4 hPa NE 15.8 mph /  25.4 km/h 15.8 mph /  25.4 km/h 65 % 0.0 in /  0 mm open2300-1.11 W/m2
09:12 14.2 °F /  -9.9 °C 7.4 °F /  -13.7 °C 1012.8 in /  34293.4 hPa WNW 18.7 mph /  30.1 km/h 18.7 mph /  30.1 km/h 64 % 0.0 in /  0 mm open2300-1.11 W/m2
10:12 15.3 °F /  -9.3 °C 7.8 °F /  -13.4 °C 1013.4 in /  34313.7 hPa NW 32.8 mph /  52.8 km/h 32.8 mph /  52.8 km/h 61 % 0.0 in /  0 mm open2300-1.11 W/m2
11:12 16.2 °F /  -8.8 °C 8.5 °F /  -13.1 °C 1014.1 in /  34337.4 hPa NW 27.4 mph /  44.1 km/h 27.4 mph /  44.1 km/h 60 % 0.0 in /  0 mm open2300-1.11 W/m2
12:12 16.5 °F /  -8.6 °C 7.9 °F /  -13.4 °C 1013.4 in /  34313.7 hPa NNW 15.1 mph /  24.3 km/h 28.8 mph /  46.3 km/h 57 % 0.0 in /  0 mm open2300-1.11 W/m2
13:12 17.3 °F /  -8.2 °C 7.8 °F /  -13.4 °C 1013.1 in /  34303.6 hPa WNW 21.2 mph /  34.1 km/h 21.2 mph /  34.1 km/h 54 % 0.0 in /  0 mm open2300-1.11 W/m2
14:12 17.4 °F /  -8.1 °C 7.9 °F /  -13.4 °C 1013.1 in /  34303.6 hPa North 14.3 mph /  23 km/h 21.9 mph /  35.2 km/h 54 % 0.0 in /  0 mm open2300-1.11 W/m2
15:12 17.2 °F /  -8.2 °C 7.8 °F /  -13.4 °C 1013.1 in /  34303.6 hPa WNW 15.1 mph /  24.3 km/h 43.1 mph /  69.4 km/h 54 % 0.0 in /  0 mm open2300-1.11 W/m2
16:12 16.1 °F /  -8.8 °C 7.8 °F /  -13.4 °C 1013.1 in /  34303.6 hPa NW 29.1 mph /  46.8 km/h 29.1 mph /  46.8 km/h 58 % 0.0 in /  0 mm open2300-1.11 W/m2
17:12 15.9 °F /  -8.9 °C 7.9 °F /  -13.4 °C 1013.1 in /  34303.6 hPa West 24.8 mph /  39.9 km/h 27.7 mph /  44.6 km/h 59 % 0.0 in /  0 mm open2300-1.11 W/m2
18:12 15.4 °F /  -9.2 °C 8.6 °F /  -13 °C 1012.8 in /  34293.4 hPa WNW 25.3 mph /  40.7 km/h 29.1 mph /  46.8 km/h 64 % 0.0 in /  0 mm open2300-1.11 W/m2
19:12 15.4 °F /  -9.2 °C 8.8 °F /  -12.9 °C 1013.4 in /  34313.7 hPa NW 8.7 mph /  14 km/h 11.1 mph /  17.9 km/h 65 % 0.0 in /  0 mm open2300-1.11 W/m2
20:12 15.4 °F /  -9.2 °C 9.3 °F /  -12.6 °C 1013.4 in /  34313.7 hPa NNW 14.3 mph /  23 km/h 28.8 mph /  46.3 km/h 67 % 0.0 in /  0 mm open2300-1.11 W/m2
21:12 14.6 °F /  -9.7 °C 9.2 °F /  -12.7 °C 1013.1 in /  34303.6 hPa NNW 5.5 mph /  8.9 km/h 24.1 mph /  38.8 km/h 70 % 0.0 in /  0 mm open2300-1.11 W/m2
22:12 14.9 °F /  -9.5 °C 7.4 °F /  -13.7 °C 1012.8 in /  34293.4 hPa NNW 28.2 mph /  45.4 km/h 28.2 mph /  45.4 km/h 61 % 0.0 in /  0 mm open2300-1.11 W/m2
23:12 14.4 °F /  -9.8 °C 7.0 °F /  -13.9 °C 1013.4 in /  34313.7 hPa West 15.4 mph /  24.8 km/h 19.8 mph /  31.9 km/h 61 % 0.0 in /  0 mm open2300-1.11 W/m2
Observations météo à CASSIS
WU-History script by Weather Underground - 1 mb